createdAt,value
2023-02-03T02:12:57.925Z,-0.93
2023-02-03T02:15:50.587Z,-0.75
2023-02-03T02:18:45.149Z,-0.68
2023-02-03T02:21:23.642Z,-0.63
2023-02-03T02:24:17.531Z,-0.59
2023-02-03T02:27:08.456Z,-0.57
2023-02-03T02:29:46.834Z,-0.56
2023-02-03T02:32:28.432Z,-0.54
2023-02-03T02:35:22.634Z,-0.52
2023-02-03T02:38:02.377Z,-0.51
2023-02-03T02:40:38.152Z,-0.51
2023-02-03T02:43:21.458Z,-0.52
2023-02-03T02:45:50.944Z,-0.54
2023-02-03T02:48:33.011Z,-0.59
2023-02-03T02:51:01.575Z,-0.65
2023-02-03T02:53:33.875Z,-0.71
2023-02-03T02:56:04.203Z,-0.75
2023-02-03T02:58:34.508Z,-0.80
2023-02-03T03:01:04.066Z,-0.84
2023-02-03T03:03:33.361Z,-0.86
2023-02-03T03:06:04.192Z,-0.88
2023-02-03T03:09:09.745Z,-0.89
2023-02-03T03:11:45.668Z,-0.92
2023-02-03T03:14:14.774Z,-0.94
2023-02-03T03:16:45.635Z,-0.97
2023-02-03T03:19:21.793Z,-0.99
2023-02-03T03:21:54.147Z,-1.01
2023-02-03T03:24:25.984Z,-0.99
2023-02-03T03:26:59.482Z,-0.98
2023-02-03T03:29:35.406Z,-0.98
2023-02-03T03:32:04.202Z,-0.99
2023-02-03T03:34:33.739Z,-1.01
2023-02-03T03:37:23.626Z,-1.03
2023-02-03T03:39:55.915Z,-1.03
2023-02-03T03:42:31.845Z,-1.04
2023-02-03T03:45:30.315Z,-1.05
2023-02-03T03:47:58.628Z,-1.07
2023-02-03T03:50:39.922Z,-1.08
2023-02-03T03:53:08.549Z,-1.13
2023-02-03T03:55:36.967Z,-1.15
2023-02-03T03:58:08.475Z,-1.15
2023-02-03T04:00:38.113Z,-1.18
2023-02-03T04:03:18.126Z,-1.19
2023-02-03T04:05:46.652Z,-1.20
2023-02-03T04:08:15.067Z,-1.19
2023-02-03T04:10:43.907Z,-1.19
2023-02-03T04:13:12.601Z,-1.20
2023-02-03T04:15:41.905Z,-1.20
2023-02-03T04:18:12.416Z,-1.22
2023-02-03T04:20:40.929Z,-1.24
2023-02-03T04:23:10.093Z,-1.25
2023-02-03T04:25:38.482Z,-1.27
2023-02-03T04:28:07.629Z,-1.29
2023-02-03T04:30:36.141Z,-1.31
2023-02-03T04:33:05.145Z,-1.31
2023-02-03T04:35:33.605Z,-1.31
2023-02-03T04:38:02.869Z,-1.31
2023-02-03T04:40:33.351Z,-1.31
2023-02-03T04:43:08.020Z,-1.30
2023-02-03T04:45:36.515Z,-1.30
2023-02-03T04:48:05.720Z,-1.31
2023-02-03T04:50:34.097Z,-1.32
2023-02-03T04:53:03.959Z,-1.31
2023-02-03T04:55:32.559Z,-1.29
2023-02-03T04:58:01.974Z,-1.28
2023-02-03T05:00:30.931Z,-1.26
2023-02-03T05:02:59.790Z,-1.26
2023-02-03T05:05:28.241Z,-1.25
2023-02-03T05:07:56.576Z,-1.25
2023-02-03T05:10:25.087Z,-1.24
2023-02-03T05:12:53.513Z,-1.24
2023-02-03T05:15:22.059Z,-1.24
2023-02-03T05:17:53.983Z,-1.25
2023-02-03T05:20:22.566Z,-1.25
2023-02-03T05:22:51.772Z,-1.26
2023-02-03T05:25:20.599Z,-1.26
2023-02-03T05:27:49.198Z,-1.27
2023-02-03T05:30:17.888Z,-1.28
2023-02-03T05:32:48.024Z,-1.30
2023-02-03T05:35:17.214Z,-1.30
2023-02-03T05:37:46.119Z,-1.29
2023-02-03T05:40:33.397Z,-1.28
2023-02-03T05:43:01.984Z,-1.28
2023-02-03T05:45:30.907Z,-1.27
2023-02-03T05:47:59.421Z,-1.26
2023-02-03T05:50:30.538Z,-1.25
2023-02-03T05:53:08.937Z,-1.22
2023-02-03T05:55:38.107Z,-1.19
2023-02-03T05:58:07.078Z,-1.17
2023-02-03T06:00:36.269Z,-1.15
2023-02-03T06:03:05.221Z,-1.13
2023-02-03T06:05:34.076Z,-1.12
2023-02-03T06:08:02.562Z,-1.10
2023-02-03T06:10:31.141Z,-1.07
2023-02-03T06:13:00.337Z,-1.06
2023-02-03T06:15:28.951Z,-1.05
2023-02-03T06:17:57.476Z,-1.03
2023-02-03T06:20:26.031Z,-1.01
2023-02-03T06:22:54.733Z,-0.98
2023-02-03T06:25:24.502Z,-0.94
2023-02-03T06:27:53.306Z,-0.92
2023-02-03T06:30:24.043Z,-0.91
2023-02-03T06:32:53.079Z,-0.90
2023-02-03T06:35:21.423Z,-0.91
2023-02-03T06:37:50.062Z,-0.93
2023-02-03T06:40:19.157Z,-0.98
2023-02-03T06:42:48.362Z,-1.00
2023-02-03T06:45:16.877Z,-1.03
2023-02-03T06:47:45.733Z,-1.04
2023-02-03T06:50:15.191Z,-1.03
2023-02-03T06:52:43.950Z,-1.03
2023-02-03T06:55:12.305Z,-1.04
2023-02-03T06:57:47.395Z,-1.06
2023-02-03T07:00:19.049Z,-1.05
2023-02-03T07:02:53.817Z,-1.04
2023-02-03T07:05:23.221Z,-1.01
2023-02-03T07:07:51.809Z,-0.96
2023-02-03T07:10:20.331Z,-0.92
2023-02-03T07:12:50.884Z,-0.89
2023-02-03T07:15:19.371Z,-0.83
2023-02-03T07:17:54.869Z,-0.80
2023-02-03T07:20:24.014Z,-0.76
2023-02-03T07:22:54.460Z,-0.73
2023-02-03T07:25:23.586Z,-0.69
2023-02-03T07:27:52.024Z,-0.66
2023-02-03T07:30:20.712Z,-0.61
2023-02-03T07:32:50.382Z,-0.54
2023-02-03T07:35:18.922Z,-0.49
2023-02-03T07:37:47.504Z,-0.42
2023-02-03T07:40:16.497Z,-0.33
2023-02-03T07:42:47.334Z,-0.28
2023-02-03T07:45:16.878Z,-0.25
2023-02-03T07:47:45.416Z,-0.18
2023-02-03T07:50:14.083Z,-0.12
2023-02-03T07:52:42.733Z,0.02
2023-02-03T07:55:11.383Z,0.12
2023-02-03T07:57:43.805Z,0.22
2023-02-03T08:00:14.358Z,0.33
2023-02-03T08:02:43.579Z,0.52
2023-02-03T08:05:12.514Z,0.67
2023-02-03T08:07:41.190Z,0.86
2023-02-03T08:10:10.208Z,1.11
2023-02-03T08:12:39.348Z,1.41
2023-02-03T08:15:08.837Z,1.62
2023-02-03T08:17:40.400Z,1.80
2023-02-03T08:20:09.905Z,1.97
2023-02-03T08:22:38.713Z,2.08
2023-02-03T08:25:09.217Z,2.17
2023-02-03T08:27:38.086Z,2.25
2023-02-03T08:30:08.614Z,2.34
2023-02-03T08:32:37.374Z,2.24
2023-02-03T08:35:06.331Z,2.17
2023-02-03T08:37:35.056Z,2.07
2023-02-03T08:40:03.628Z,1.96
2023-02-03T08:42:32.461Z,1.89
2023-02-03T08:45:02.345Z,1.84
2023-02-03T08:47:33.401Z,1.69
2023-02-03T08:50:02.245Z,1.53
2023-02-03T08:52:32.077Z,1.42
2023-02-03T08:55:00.892Z,1.39
2023-02-03T08:57:35.846Z,1.39
2023-02-03T09:00:05.954Z,1.40
2023-02-03T09:02:37.223Z,1.45
2023-02-03T09:05:06.120Z,1.47
2023-02-03T09:07:38.502Z,1.54
2023-02-03T09:10:07.688Z,1.57
2023-02-03T09:12:37.547Z,1.56
2023-02-03T09:15:09.407Z,1.54
2023-02-03T09:17:55.892Z,1.47
2023-02-03T09:20:32.111Z,1.43
2023-02-03T09:23:01.192Z,1.41
2023-02-03T09:25:29.836Z,1.39
2023-02-03T09:27:58.982Z,1.42
2023-02-03T09:30:28.453Z,1.46
2023-02-03T09:32:59.123Z,1.59
2023-02-03T09:35:29.954Z,1.80
2023-02-03T09:38:00.159Z,1.99
2023-02-03T09:40:48.021Z,2.27
2023-02-03T09:43:32.841Z,2.63
2023-02-03T09:46:12.345Z,2.74
2023-02-03T09:48:44.380Z,2.93
2023-02-03T09:51:25.122Z,3.22
2023-02-03T09:54:35.263Z,3.56
2023-02-03T09:57:05.893Z,3.91
2023-02-03T09:59:34.291Z,4.07
2023-02-03T10:02:14.280Z,4.23
2023-02-03T10:04:50.025Z,4.34
2023-02-03T10:07:30.223Z,4.46
2023-02-03T10:20:16.794Z,3.91
2023-02-03T10:22:55.753Z,3.50
2023-02-03T10:25:30.554Z,3.39
2023-02-03T10:28:00.147Z,3.42
2023-02-03T10:30:33.509Z,3.53
2023-02-03T10:33:01.835Z,3.70
2023-02-03T10:35:36.577Z,3.77
2023-02-03T10:38:03.749Z,3.74
2023-02-03T10:40:31.867Z,3.66
2023-02-03T10:43:18.507Z,3.58
2023-02-03T10:45:45.636Z,3.58
2023-02-03T10:48:16.386Z,3.68
2023-02-03T10:50:46.319Z,3.86
2023-02-03T10:53:46.824Z,3.99
2023-02-03T10:56:17.616Z,4.17
2023-02-03T10:58:53.244Z,4.31
2023-02-03T11:01:22.262Z,4.28
2023-02-03T11:03:54.568Z,4.35
2023-02-03T11:06:21.711Z,4.48
2023-02-03T11:08:49.789Z,4.45
2023-02-03T11:11:24.907Z,4.30
2023-02-03T11:14:02.001Z,4.04
2023-02-03T11:16:33.811Z,3.92
2023-02-03T11:19:18.216Z,3.87
2023-02-03T11:21:52.316Z,3.82
2023-02-03T11:24:27.269Z,3.78
2023-02-03T11:27:04.315Z,3.79
2023-02-03T11:29:34.461Z,3.73
2023-02-03T11:32:14.338Z,3.71
2023-02-03T11:34:56.316Z,3.70
2023-02-03T11:37:26.747Z,3.69
2023-02-03T11:40:19.904Z,3.71
2023-02-03T11:42:49.896Z,3.77
2023-02-03T11:45:17.409Z,3.88
2023-02-03T11:47:55.539Z,3.98
2023-02-03T11:50:41.575Z,4.02
2023-02-03T11:53:20.440Z,3.98
2023-02-03T11:56:08.195Z,3.88
2023-02-03T11:58:35.691Z,3.75
2023-02-03T12:01:37.315Z,3.74
2023-02-03T12:04:24.457Z,3.72
2023-02-03T12:06:51.821Z,3.78
2023-02-03T12:09:34.128Z,3.76
2023-02-03T12:12:17.460Z,3.71
2023-02-03T12:14:57.073Z,3.71
2023-02-03T12:17:34.099Z,3.71
2023-02-03T12:20:19.746Z,3.67
2023-02-03T12:22:54.695Z,3.63
2023-02-03T12:25:41.036Z,3.53
2023-02-03T12:28:32.213Z,3.47
2023-02-03T12:31:15.270Z,3.44
2023-02-03T12:33:52.023Z,3.39
2023-02-03T12:36:30.432Z,3.35
2023-02-03T12:39:12.583Z,3.31
2023-02-03T12:41:42.692Z,3.30
2023-02-03T12:44:19.919Z,3.30
2023-02-03T12:47:12.797Z,3.29
2023-02-03T12:50:03.924Z,3.21
2023-02-03T12:52:36.169Z,3.13
2023-02-03T12:55:21.896Z,3.08
2023-02-03T12:57:54.602Z,3.04
2023-02-03T13:00:40.899Z,3.05
2023-02-03T13:03:34.088Z,3.05
2023-02-03T13:06:23.376Z,3.03
2023-02-03T13:08:54.402Z,3.03
2023-02-03T13:11:48.486Z,3.03
2023-02-03T13:14:35.747Z,3.02
2023-02-03T13:17:11.863Z,2.99
2023-02-03T13:19:45.058Z,2.95
2023-02-03T13:22:13.329Z,2.91
2023-02-03T13:24:47.545Z,2.86
2023-02-03T13:27:14.803Z,2.84
2023-02-03T13:29:42.672Z,2.83
2023-02-03T13:32:17.773Z,2.82
2023-02-03T13:35:24.864Z,2.81
2023-02-03T13:38:05.775Z,2.79
2023-02-03T13:40:58.554Z,2.76
2023-02-03T13:43:38.182Z,2.74
2023-02-03T13:46:24.809Z,2.69
2023-02-03T13:48:52.333Z,2.65
2023-02-03T13:51:24.660Z,2.64
2023-02-03T13:54:14.272Z,2.61
2023-02-03T13:56:53.412Z,2.58
2023-02-03T13:59:41.774Z,2.56
2023-02-03T14:02:21.388Z,2.53
2023-02-03T14:04:48.606Z,2.49
2023-02-03T14:07:28.120Z,2.46
2023-02-03T14:10:23.616Z,2.45
2023-02-03T14:26:53.992Z,2.61
2023-02-03T14:29:26.699Z,2.61
2023-02-03T14:32:08.437Z,2.50
2023-02-03T14:34:40.149Z,2.38
2023-02-03T14:37:21.387Z,2.30
2023-02-03T14:39:55.523Z,2.24
2023-02-03T14:43:04.879Z,2.18
2023-02-03T14:45:55.271Z,2.12
2023-02-03T14:48:55.149Z,2.08
2023-02-03T14:51:54.171Z,2.05
2023-02-03T14:54:36.292Z,1.99
2023-02-03T14:57:23.822Z,1.92
2023-02-03T15:00:20.242Z,1.84
2023-02-03T15:03:06.350Z,1.73
2023-02-03T15:05:36.591Z,1.61
2023-02-03T15:08:35.783Z,1.49
2023-02-03T15:11:22.887Z,1.36
2023-02-03T15:13:50.433Z,1.23
2023-02-03T15:16:22.475Z,1.13
2023-02-03T15:18:55.193Z,1.05
2023-02-03T15:21:22.344Z,0.99
2023-02-03T15:23:51.440Z,0.96
2023-02-03T15:26:23.779Z,0.93
2023-02-03T15:28:54.815Z,0.90
2023-02-03T15:31:37.522Z,0.87
2023-02-03T15:34:26.836Z,0.84
2023-02-03T15:36:56.542Z,0.81
2023-02-03T15:39:45.811Z,0.78
2023-02-03T15:42:21.461Z,0.73
2023-02-03T15:45:05.437Z,0.67
2023-02-03T15:47:35.734Z,0.61
2023-02-03T15:50:25.000Z,0.55
2023-02-03T15:52:53.168Z,0.50
2023-02-03T15:55:37.433Z,0.46
2023-02-03T15:58:04.876Z,0.44
2023-02-03T16:00:38.072Z,0.40
2023-02-03T16:03:13.810Z,0.36
2023-02-03T16:05:44.346Z,0.33
2023-02-03T16:08:42.555Z,0.33
2023-02-03T16:11:28.831Z,0.34
2023-02-03T16:13:57.004Z,0.37
2023-02-03T16:16:52.128Z,0.41
2023-02-03T16:19:33.155Z,0.48
2023-02-03T16:22:02.682Z,0.50
2023-02-03T16:24:33.490Z,0.50
2023-02-03T16:27:25.980Z,0.50
2023-02-03T16:30:24.092Z,0.48
2023-02-03T16:33:19.943Z,0.44
2023-02-03T16:36:06.264Z,0.41
2023-02-03T16:38:54.103Z,0.35
2023-02-03T16:41:40.289Z,0.29
2023-02-03T16:44:29.975Z,0.25
2023-02-03T16:47:16.677Z,0.20
2023-02-03T16:50:03.080Z,0.19
2023-02-03T16:52:31.480Z,0.16
2023-02-03T16:54:58.818Z,0.13
2023-02-03T16:57:26.779Z,0.08
2023-02-03T16:59:56.191Z,0.06
2023-02-03T17:02:24.308Z,0.06
2023-02-03T17:04:51.505Z,0.06
2023-02-03T17:07:18.746Z,0.07
2023-02-03T17:09:46.020Z,0.06
2023-02-03T17:12:13.112Z,0.05
2023-02-03T17:14:40.544Z,0.06
2023-02-03T17:17:07.891Z,0.07
2023-02-03T17:19:35.354Z,0.06
2023-02-03T17:22:03.906Z,0.05
2023-02-03T17:24:32.494Z,0.03
2023-02-03T17:26:59.785Z,0.03
2023-02-03T17:29:27.300Z,0.04
2023-02-03T17:31:55.614Z,0.05
2023-02-03T17:34:23.441Z,0.04
2023-02-03T17:36:51.103Z,0.04
2023-02-03T17:55:33.508Z,0.25
2023-02-03T17:58:01.566Z,0.30
2023-02-03T18:00:29.488Z,0.32
2023-02-03T18:02:57.931Z,0.34
2023-02-03T18:05:25.173Z,0.34
2023-02-03T18:07:52.839Z,0.35
2023-02-03T18:10:20.397Z,0.37
2023-02-03T18:12:48.148Z,0.39
2023-02-03T18:15:16.423Z,0.40
2023-02-03T18:17:47.381Z,0.38
2023-02-03T18:20:15.122Z,0.35
2023-02-03T18:22:43.807Z,0.32
2023-02-03T18:25:12.496Z,0.29
2023-02-03T18:27:40.389Z,0.25
2023-02-03T18:30:11.334Z,0.22
2023-02-03T18:32:38.647Z,0.20
2023-02-03T18:35:13.377Z,0.17
2023-02-03T18:37:40.746Z,0.15
2023-02-03T18:40:08.908Z,0.14
2023-02-03T18:42:36.169Z,0.13
2023-02-03T18:45:05.892Z,0.13
2023-02-03T18:47:33.792Z,0.13
2023-02-03T18:50:01.712Z,0.12
2023-02-03T18:52:29.195Z,0.11
2023-02-03T18:54:56.424Z,0.11
2023-02-03T18:57:24.922Z,0.11
2023-02-03T18:59:52.364Z,0.11
2023-02-03T19:02:21.305Z,0.11
2023-02-03T19:04:48.428Z,0.11
2023-02-03T19:07:16.128Z,0.09
2023-02-03T19:09:43.521Z,0.08
2023-02-03T19:12:10.938Z,0.04
2023-02-03T19:14:39.016Z,0.02
2023-02-03T19:17:06.678Z,-0.00
2023-02-03T19:19:34.789Z,-0.03
2023-02-03T19:22:01.950Z,-0.05
2023-02-03T19:24:29.503Z,-0.08
2023-02-03T19:26:56.954Z,-0.10
2023-02-03T19:29:24.269Z,-0.12
2023-02-03T19:31:52.218Z,-0.14
2023-02-03T19:34:19.632Z,-0.17
2023-02-03T19:36:46.921Z,-0.20
2023-02-03T19:39:15.161Z,-0.23
2023-02-03T19:41:42.315Z,-0.26
2023-02-03T19:44:09.766Z,-0.30
2023-02-03T19:46:37.503Z,-0.34
2023-02-03T19:49:06.320Z,-0.38
2023-02-03T19:51:33.886Z,-0.41
2023-02-03T19:54:01.656Z,-0.43
2023-02-03T19:56:29.102Z,-0.44
2023-02-03T19:58:56.252Z,-0.45
2023-02-03T20:01:23.751Z,-0.45
2023-02-03T20:03:51.943Z,-0.46
2023-02-03T20:06:19.078Z,-0.47
2023-02-03T20:09:06.454Z,-0.49
2023-02-03T20:11:34.074Z,-0.52
2023-02-03T20:14:02.032Z,-0.56
2023-02-03T20:16:29.370Z,-0.58
2023-02-03T20:18:57.818Z,-0.61
2023-02-03T20:21:25.072Z,-0.61
2023-02-03T20:23:53.860Z,-0.61
2023-02-03T20:26:21.670Z,-0.61
2023-02-03T20:28:49.632Z,-0.60
2023-02-03T20:31:16.806Z,-0.59
2023-02-03T20:33:44.148Z,-0.58
2023-02-03T20:36:12.070Z,-0.55
2023-02-03T20:38:39.539Z,-0.55
2023-02-03T20:41:10.154Z,-0.56
2023-02-03T20:43:37.815Z,-0.56
2023-02-03T20:46:15.581Z,-0.55
2023-02-03T20:48:43.273Z,-0.55
2023-02-03T20:51:14.769Z,-0.56
2023-02-03T20:53:42.287Z,-0.54
2023-02-03T20:56:21.386Z,-0.53
2023-02-03T20:58:48.880Z,-0.54
2023-02-03T21:01:22.102Z,-0.54
2023-02-03T21:04:08.268Z,-0.54
2023-02-03T21:06:35.740Z,-0.55
2023-02-03T21:09:23.460Z,-0.54
2023-02-03T21:11:51.532Z,-0.55
2023-02-03T21:14:35.288Z,-0.55
2023-02-03T21:17:02.725Z,-0.54
2023-02-03T21:19:32.441Z,-0.55
2023-02-03T21:22:31.642Z,-0.54
2023-02-03T21:25:00.403Z,-0.54
2023-02-03T21:27:32.191Z,-0.55
2023-02-03T21:30:28.034Z,-0.55
2023-02-03T21:32:56.306Z,-0.55
2023-02-03T21:35:39.033Z,-0.54
2023-02-03T21:38:25.290Z,-0.55
2023-02-03T21:40:52.648Z,-0.56
2023-02-03T21:43:21.231Z,-0.56
2023-02-03T21:45:49.552Z,-0.59
2023-02-03T21:48:28.146Z,-0.61
2023-02-03T21:50:57.018Z,-0.62
2023-02-03T21:53:35.624Z,-0.64
2023-02-03T21:56:16.811Z,-0.65
2023-02-03T21:58:44.243Z,-0.64
2023-02-03T22:01:16.179Z,-0.64
2023-02-03T22:03:47.276Z,-0.65
2023-02-03T22:06:28.782Z,-0.64
2023-02-03T22:08:57.442Z,-0.64
2023-02-03T22:11:26.871Z,-0.64
2023-02-03T22:13:54.370Z,-0.64
2023-02-03T22:16:22.303Z,-0.65
2023-02-03T22:18:49.867Z,-0.65
2023-02-03T22:21:17.528Z,-0.65
2023-02-03T22:23:45.361Z,-0.66
2023-02-03T22:26:12.914Z,-0.65
2023-02-03T22:28:40.207Z,-0.67
2023-02-03T22:31:08.869Z,-0.70
2023-02-03T22:33:36.274Z,-0.72
2023-02-03T22:36:05.966Z,-0.74
2023-02-03T22:38:33.885Z,-0.78
2023-02-03T22:41:01.645Z,-0.80
2023-02-03T22:43:31.042Z,-0.83
2023-02-03T22:45:59.570Z,-0.86
2023-02-03T22:48:28.112Z,-0.88
2023-02-03T22:50:56.092Z,-0.90
2023-02-03T22:53:23.948Z,-0.91
2023-02-03T22:55:51.202Z,-0.92
2023-02-03T22:58:18.555Z,-0.93
2023-02-03T23:00:45.910Z,-0.97
2023-02-03T23:03:13.618Z,-0.99
2023-02-03T23:05:40.912Z,-0.99
2023-02-03T23:08:09.159Z,-0.99
2023-02-03T23:10:36.457Z,-0.98
2023-02-03T23:13:07.096Z,-0.98
2023-02-03T23:15:35.698Z,-0.97
2023-02-03T23:18:03.741Z,-0.94
2023-02-03T23:20:33.491Z,-0.94
2023-02-03T23:23:00.821Z,-0.95
2023-02-03T23:25:28.575Z,-0.96
2023-02-03T23:27:56.168Z,-0.98
2023-02-03T23:30:23.278Z,-0.99
2023-02-03T23:32:51.048Z,-1.00
2023-02-03T23:35:37.163Z,-0.99
2023-02-03T23:38:04.802Z,-1.00
2023-02-03T23:40:33.112Z,-0.99
2023-02-03T23:43:00.544Z,-0.99
2023-02-03T23:45:27.621Z,-0.98
2023-02-03T23:47:54.917Z,-0.97
2023-02-03T23:50:22.004Z,-0.95
2023-02-03T23:52:49.552Z,-0.93
2023-02-03T23:55:18.630Z,-0.92
2023-02-03T23:57:46.188Z,-0.91
